Madison, AL

8:56 PM CDT on August 03, 2015 (GMT -0500)
The Willows | | Change Station
CLOSE
Current Station
Personal Weather Station
Location: Madison, AL
Elevation: 607 ft
Nearby Weather Stations

Elev 607 ft 34.61 °N, 86.75 °W | Updated 1 minute ago

Partly Cloudy
Partly Cloudy
82.1 °F
Feels Like 87 °F
N
0.0
Wind Variable Wind from West
Gusts 1.0 mph

Today
High -- | Low -- °F
--% Chance of Precip.
Yesterday
High -- | Low -- °F
Precip. -- in
5:58 AM 7:47 PM
Waning Gibbous, 82% visible
Pressure 29.91 in
Visibility 10.0 miles
Clouds Few 25000 ft
Heat Index 87 °F
Dew Point 72 °F
Humidity 71%
Rainfall 0.00 in
Snow Depth Not available.
UV 0 out of 12
Pollen 3.90 out of 12
Air Quality Not available.
Flu Activity Not available.
METAR KHSV 040153Z 29003KT 10SM FEW250 27/21 A2994 RMK AO2 SLP129 T02720211

More Conditions Fewer Conditions

Pressure 29.91 in
Visibility 10.0 miles
Clouds Few 25000 ft
Heat Index 87 °F
Dew Point 72 °F
Humidity 71%
Rainfall 0.00 in
Snow Depth Not available.
UV 0 out of 12
Pollen 3.90 out of 12
Air Quality Not available.
Flu Activity Not available.
METAR KHSV 040153Z 29003KT 10SM FEW250 27/21 A2994 RMK AO2 SLP129 T02720211

More Conditions Fewer Conditions

10-Day Weather Forecast

×

Almanac

Astronomy

Aug. 03, 2015 Rise Set
Actual Time
Civil Twilight
Nautical Twilight
Astronomical Twilight
Moon
Length of Visible Light
Length of Day
Tomorrow will be .
, % of the Moon is Illuminated

Today's Extremes

State Highs State Lows

Community

WunderPhotos

Upload Photos

1,843,820 photos uploaded!

WunderBlogs® & News

Nearby

Air Quality

  Air Quality AQ Index Pollutant
Not available.

Snow Depth

Station Depth Elevation

Earthquake Activity

City Distance Mag. Time & Date
Minimum magnitude displayed is 2.5.

Coastal Water Temperatures

Place Temperature

Stations

Nearby Weather Stations

Station Location Temp. Windchill Dew Point Humidity Wind Precip. Elev Updated Type